Time,TemperatureF,DewpointF,PressureIn,WindDirection,WindDirectionDegrees,WindSpeedMPH,WindSpeedGustMPH,Humidity,HourlyPrecipIn,Conditions,Clouds,dailyrainin,SoftwareType,DateUTC
2013-02-14 00:00:00,76.5,51.0,27.08,South,191,0.0,0.0,32,0.00,,---,0.00,VWS V14.01,2013-02-14 06:00:00,
2013-02-14 00:05:00,76.5,51.0,27.08,South,191,0.0,0.0,32,0.00,,---,0.00,VWS V14.01,2013-02-14 06:05:00,
2013-02-14 00:10:00,76.5,51.0,27.08,South,191,0.0,0.0,32,0.00,,---,0.00,VWS V14.01,2013-02-14 06:10:00,
2013-02-14 00:15:00,76.5,51.0,27.08,South,191,0.0,0.0,32,0.00,,---,0.00,VWS V14.01,2013-02-14 06:15:00,
2013-02-14 00:20:00,76.5,51.0,27.08,South,191,0.0,0.0,32,0.00,,---,0.00,VWS V14.01,2013-02-14 06:20:00,
2013-02-14 00:25:00,76.5,51.0,27.08,South,191,0.0,0.0,32,0.00,,---,0.00,VWS V14.01,2013-02-14 06:25:00,
2013-02-14 00:30:00,76.5,51.0,27.08,South,191,0.0,0.0,32,0.00,,---,0.00,VWS V14.01,2013-02-14 06:30:00,
2013-02-14 00:35:00,76.5,51.0,27.08,South,191,0.0,0.0,32,0.00,,---,0.00,VWS V14.01,2013-02-14 06:35:00,
2013-02-14 00:40:00,76.5,51.0,27.08,South,191,0.0,0.0,32,0.00,,---,0.00,VWS V14.01,2013-02-14 06:40:00,
2013-02-14 00:45:00,76.5,51.0,27.08,West,269,0.0,0.0,32,0.00,,---,0.00,VWS V14.01,2013-02-14 06:45:00,
2013-02-14 00:50:00,76.5,51.0,27.08,West,267,0.0,0.0,32,0.00,,---,0.00,VWS V14.01,2013-02-14 06:50:00,
2013-02-14 00:55:00,76.5,51.0,27.05,West,267,0.0,0.0,32,0.00,,---,0.00,VWS V14.01,2013-02-14 06:55:00,
2013-02-14 01:06:00,76.5,51.0,27.05,West,265,0.0,0.0,32,0.00,,---,0.00,VWS V14.01,2013-02-14 07:06:00,
2013-02-14 01:11:00,76.5,51.0,27.05,West,265,0.0,0.0,32,0.00,,---,0.00,VWS V14.01,2013-02-14 07:11:00,
2013-02-14 01:16:00,76.5,51.0,27.05,West,265,0.0,0.0,32,0.00,,---,0.00,VWS V14.01,2013-02-14 07:16:00,
2013-02-14 01:21:00,76.5,51.0,27.05,West,265,0.0,0.0,32,0.00,,---,0.00,VWS V14.01,2013-02-14 07:21:00,
2013-02-14 01:26:00,76.5,51.0,27.05,West,265,0.0,0.0,32,0.00,,---,0.00,VWS V14.01,2013-02-14 07:26:00,
2013-02-14 01:31:00,76.5,51.0,27.05,West,265,0.0,0.0,32,0.00,,---,0.00,VWS V14.01,2013-02-14 07:31:00,
2013-02-14 01:36:00,76.5,51.0,27.05,West,265,0.0,0.0,32,0.00,,---,0.00,VWS V14.01,2013-02-14 07:36:00,
2013-02-14 01:41:00,76.5,51.0,27.05,West,265,0.0,0.0,32,0.00,,---,0.00,VWS V14.01,2013-02-14 07:41:00,
2013-02-14 01:46:00,76.5,51.0,27.05,West,265,0.0,0.0,32,0.00,,---,0.00,VWS V14.01,2013-02-14 07:46:00,
2013-02-14 01:51:00,76.5,51.0,27.05,West,265,0.0,0.0,32,0.00,,---,0.00,VWS V14.01,2013-02-14 07:51:00,
2013-02-14 01:56:00,76.5,51.0,27.05,West,265,0.0,0.0,32,0.00,,---,0.00,VWS V14.01,2013-02-14 07:56:00,
2013-02-14 02:01:00,76.5,51.0,27.05,West,265,0.0,0.0,32,0.00,,---,0.00,VWS V14.01,2013-02-14 08:01:00,
2013-02-14 02:06:00,76.5,51.0,27.05,West,265,0.0,0.0,32,0.00,,---,0.00,VWS V14.01,2013-02-14 08:06:00,
2013-02-14 02:11:00,76.5,51.0,27.05,West,265,0.0,0.0,32,0.00,,---,0.00,VWS V14.01,2013-02-14 08:11:00,
2013-02-14 02:16:00,76.5,51.0,27.05,West,265,0.0,0.0,32,0.00,,---,0.00,VWS V14.01,2013-02-14 08:16:00,
2013-02-14 02:21:00,76.5,51.0,27.05,West,265,0.0,0.0,32,0.00,,---,0.00,VWS V14.01,2013-02-14 08:21:00,
2013-02-14 02:26:00,76.5,51.0,27.02,West,265,0.0,0.0,32,0.00,,---,0.00,VWS V14.01,2013-02-14 08:26:00,
2013-02-14 02:31:00,76.5,51.0,27.02,West,265,0.0,0.0,32,0.00,,---,0.00,VWS V14.01,2013-02-14 08:31:00,
2013-02-14 02:36:00,76.5,51.0,27.02,West,265,0.0,0.0,32,0.00,,---,0.00,VWS V14.01,2013-02-14 08:36:00,
2013-02-14 02:41:00,76.5,51.0,27.05,West,265,0.0,0.0,32,0.00,,---,0.00,VWS V14.01,2013-02-14 08:41:00,
2013-02-14 02:46:00,76.5,51.0,27.05,West,265,0.0,0.0,32,0.00,,---,0.00,VWS V14.01,2013-02-14 08:46:00,
2013-02-14 02:51:00,76.5,51.0,27.05,West,265,0.0,0.0,32,0.00,,---,0.00,VWS V14.01,2013-02-14 08:51:00,
2013-02-14 02:56:00,76.5,51.0,27.05,South,176,0.0,0.0,32,0.00,,---,0.00,VWS V14.01,2013-02-14 08:56:00,
2013-02-14 03:01:00,76.5,51.0,27.05,South,176,0.0,0.0,32,0.00,,---,0.00,VWS V14.01,2013-02-14 09:01:00,
2013-02-14 03:06:00,76.5,51.0,27.05,SSE,157,0.0,0.0,32,0.00,,---,0.00,VWS V14.01,2013-02-14 09:06:00,
2013-02-14 03:11:00,76.5,51.0,27.05,SSE,157,0.0,0.0,32,0.00,,---,0.00,VWS V14.01,2013-02-14 09:11:00,
2013-02-14 03:16:00,76.5,51.0,27.05,SSE,152,0.0,0.0,32,0.00,,---,0.00,VWS V14.01,2013-02-14 09:16:00,
2013-02-14 03:21:00,76.5,51.0,27.05,SSE,152,0.0,0.0,32,0.00,,---,0.00,VWS V14.01,2013-02-14 09:21:00,
2013-02-14 03:26:00,76.5,51.0,27.02,SSE,152,0.0,0.0,32,0.00,,---,0.00,VWS V14.01,2013-02-14 09:26:00,
2013-02-14 03:31:00,76.5,51.0,27.02,SSE,152,0.0,0.0,32,0.00,,---,0.00,VWS V14.01,2013-02-14 09:31:00,
2013-02-14 03:36:00,76.5,51.0,27.02,SSE,152,0.0,0.0,32,0.00,,---,0.00,VWS V14.01,2013-02-14 09:36:00,
2013-02-14 03:41:00,76.5,51.0,27.02,SSW,209,0.0,0.0,32,0.00,,---,0.00,VWS V14.01,2013-02-14 09:41:00,
2013-02-14 03:46:00,76.5,51.0,27.02,SSW,209,0.0,0.0,32,0.00,,---,0.00,VWS V14.01,2013-02-14 09:46:00,
2013-02-14 03:51:00,76.5,51.0,27.02,SSW,209,0.0,0.0,32,0.00,,---,0.00,VWS V14.01,2013-02-14 09:51:00,
2013-02-14 03:56:00,76.5,51.0,27.05,SSW,209,0.0,0.0,32,0.00,,---,0.00,VWS V14.01,2013-02-14 09:56:00,
2013-02-14 04:01:00,76.5,51.0,27.05,SW,220,0.0,0.0,32,0.00,,---,0.00,VWS V14.01,2013-02-14 10:01:00,
2013-02-14 04:06:00,76.5,51.0,27.05,SW,220,0.0,0.0,32,0.00,,---,0.00,VWS V14.01,2013-02-14 10:06:00,
2013-02-14 04:11:00,76.5,51.0,27.05,SW,220,0.0,0.0,32,0.00,,---,0.00,VWS V14.01,2013-02-14 10:11:00,
2013-02-14 04:16:00,76.5,51.0,27.05,SW,219,0.0,0.0,32,0.00,,---,0.00,VWS V14.01,2013-02-14 10:16:00,
2013-02-14 04:21:00,76.5,51.0,27.05,SW,219,0.0,0.0,32,0.00,,---,0.00,VWS V14.01,2013-02-14 10:21:00,
2013-02-14 04:26:00,76.5,51.0,27.05,SW,219,0.0,0.0,32,0.00,,---,0.00,VWS V14.01,2013-02-14 10:26:00,
2013-02-14 04:31:00,76.5,51.0,27.05,SW,219,0.0,0.0,32,0.00,,---,0.00,VWS V14.01,2013-02-14 10:31:00,
2013-02-14 04:36:00,76.5,51.0,27.05,SW,219,0.0,0.0,32,0.00,,---,0.00,VWS V14.01,2013-02-14 10:36:00,
2013-02-14 04:41:00,76.5,51.0,27.05,SW,219,0.0,0.0,32,0.00,,---,0.00,VWS V14.01,2013-02-14 10:41:00,
2013-02-14 04:46:00,76.5,51.0,27.05,SW,219,0.0,0.0,32,0.00,,---,0.00,VWS V14.01,2013-02-14 10:46:00,
2013-02-14 04:51:00,76.5,51.0,27.05,SW,216,0.0,0.0,32,0.00,,---,0.00,VWS V14.01,2013-02-14 10:51:00,
2013-02-14 04:56:00,76.5,51.0,27.05,SW,217,0.0,0.0,32,0.00,,---,0.00,VWS V14.01,2013-02-14 10:56:00,
2013-02-14 05:01:00,76.5,51.0,27.05,SW,217,0.0,0.0,32,0.00,,---,0.00,VWS V14.01,2013-02-14 11:01:00,
2013-02-14 05:06:00,76.5,51.0,27.05,SW,217,0.0,0.0,32,0.00,,---,0.00,VWS V14.01,2013-02-14 11:06:00,
2013-02-14 05:11:00,76.5,51.0,27.05,SW,217,0.0,0.0,32,0.00,,---,0.00,VWS V14.01,2013-02-14 11:11:00,
2013-02-14 05:16:00,76.5,51.0,27.05,SW,217,0.0,0.0,32,0.00,,---,0.00,VWS V14.01,2013-02-14 11:16:00,
2013-02-14 05:21:00,76.5,51.0,27.05,SW,217,0.0,0.0,32,0.00,,---,0.00,VWS V14.01,2013-02-14 11:21:00,
2013-02-14 05:26:00,76.5,51.0,27.05,SW,217,0.0,0.0,32,0.00,,---,0.00,VWS V14.01,2013-02-14 11:26:00,
2013-02-14 05:31:00,76.5,51.0,27.05,SSE,151,0.0,0.0,32,0.00,,---,0.00,VWS V14.01,2013-02-14 11:31:00,
2013-02-14 05:36:00,76.5,51.0,27.05,SSE,166,0.0,0.0,32,0.00,,---,0.00,VWS V14.01,2013-02-14 11:36:00,
2013-02-14 05:41:00,76.5,51.0,27.05,South,182,0.0,0.0,32,0.00,,---,0.00,VWS V14.01,2013-02-14 11:41:00,
2013-02-14 05:46:00,76.5,51.0,27.05,SSE,157,2.7,2.7,32,0.00,,---,0.00,VWS V14.01,2013-02-14 11:46:00,
2013-02-14 05:51:00,76.5,51.0,27.05,SSE,149,4.0,5.4,32,0.00,,---,0.00,VWS V14.01,2013-02-14 11:51:00,
2013-02-14 05:56:00,76.5,51.0,27.05,SSE,157,0.0,3.1,32,0.00,,---,0.00,VWS V14.01,2013-02-14 11:56:00,
2013-02-14 06:01:00,76.5,51.0,27.05,ENE,77,0.0,0.0,32,0.00,,---,0.00,VWS V14.01,2013-02-14 12:01:00,
2013-02-14 06:06:00,76.5,51.0,27.05,SE,140,0.0,0.0,32,0.00,,---,0.00,VWS V14.01,2013-02-14 12:06:00,
2013-02-14 06:11:00,76.5,51.0,27.08,East,85,0.0,0.0,32,0.00,,---,0.00,VWS V14.01,2013-02-14 12:11:00,
2013-02-14 06:16:00,76.5,51.0,27.08,SE,138,3.1,3.1,32,0.00,,---,0.00,VWS V14.01,2013-02-14 12:16:00,
2013-02-14 06:21:00,76.5,51.0,27.08,SSE,148,2.2,2.7,32,0.00,,---,0.00,VWS V14.01,2013-02-14 12:21:00,
2013-02-14 06:26:00,76.5,51.0,27.08,SSW,193,2.2,3.6,32,0.00,,---,0.00,VWS V14.01,2013-02-14 12:26:00,
2013-02-14 06:31:00,76.5,51.0,27.08,SE,140,3.6,3.6,32,0.00,,---,0.00,VWS V14.01,2013-02-14 12:31:00,
2013-02-14 06:36:00,76.5,51.0,27.08,SSE,148,0.0,0.0,32,0.00,,---,0.00,VWS V14.01,2013-02-14 12:36:00,
2013-02-14 06:41:00,76.5,51.0,27.05,SSE,153,0.0,2.7,32,0.00,,---,0.00,VWS V14.01,2013-02-14 12:41:00,
2013-02-14 06:46:00,76.5,51.0,27.05,East,85,0.0,0.0,32,0.00,,---,0.00,VWS V14.01,2013-02-14 12:46:00,
2013-02-14 06:51:00,76.5,51.0,27.05,East,93,2.2,2.2,32,0.00,,---,0.00,VWS V14.01,2013-02-14 12:51:00,
2013-02-14 06:56:00,76.5,51.0,27.08,East,80,3.6,4.9,32,0.00,,---,0.00,VWS V14.01,2013-02-14 12:56:00,
2013-02-14 07:01:00,76.5,51.0,27.08,SE,142,2.2,3.1,32,0.00,,---,0.00,VWS V14.01,2013-02-14 13:01:00,
2013-02-14 07:06:00,76.5,51.0,27.08,SE,135,3.1,3.1,32,0.00,,---,0.00,VWS V14.01,2013-02-14 13:06:00,
2013-02-14 07:11:00,76.5,51.0,27.11,SE,135,3.1,5.4,32,0.00,,---,0.00,VWS V14.01,2013-02-14 13:11:00,
2013-02-14 07:16:00,76.5,51.0,27.11,SE,129,2.7,3.1,32,0.00,,---,0.00,VWS V14.01,2013-02-14 13:16:00,
2013-02-14 07:21:00,76.5,51.0,27.11,SE,130,3.6,3.6,32,0.00,,---,0.00,VWS V14.01,2013-02-14 13:21:00,
2013-02-14 07:26:00,76.5,51.0,27.08,SE,130,4.0,6.3,32,0.00,,---,0.00,VWS V14.01,2013-02-14 13:26:00,
2013-02-14 07:31:00,76.5,51.0,27.08,SE,129,5.4,5.4,32,0.00,,---,0.00,VWS V14.01,2013-02-14 13:31:00,
2013-02-14 07:36:00,76.5,51.0,27.08,ESE,119,0.0,4.0,32,0.00,,---,0.00,VWS V14.01,2013-02-14 13:36:00,
2013-02-14 07:41:00,76.5,51.0,27.08,ESE,121,0.0,2.7,32,0.00,,---,0.00,VWS V14.01,2013-02-14 13:41:00,
2013-02-14 07:46:00,76.5,51.0,27.08,East,88,11.0,11.0,32,0.00,,---,0.00,VWS V14.01,2013-02-14 13:46:00,
2013-02-14 07:51:00,76.5,51.0,27.08,ESE,106,2.7,4.9,32,0.00,,---,0.00,VWS V14.01,2013-02-14 13:51:00,
2013-02-14 07:56:00,76.5,51.0,27.11,ENE,67,4.9,5.4,32,0.00,,---,0.00,VWS V14.01,2013-02-14 13:56:00,
2013-02-14 08:01:00,76.5,51.0,27.11,SSE,156,7.6,7.6,32,0.00,,---,0.00,VWS V14.01,2013-02-14 14:01:00,
2013-02-14 08:06:00,76.5,51.0,27.11,East,83,5.4,8.7,32,0.00,,---,0.00,VWS V14.01,2013-02-14 14:06:00,
2013-02-14 08:11:00,76.5,51.0,27.11,ESE,115,8.1,8.1,32,0.00,,---,0.00,VWS V14.01,2013-02-14 14:11:00,
2013-02-14 08:16:00,76.5,51.0,27.11,East,101,6.3,6.3,32,0.00,,---,0.00,VWS V14.01,2013-02-14 14:16:00,
2013-02-14 08:21:00,76.5,51.0,27.11,SE,130,3.1,3.1,32,0.00,,---,0.00,VWS V14.01,2013-02-14 14:21:00,
2013-02-14 08:26:00,76.5,51.0,27.11,SE,146,4.5,4.5,32,0.00,,---,0.00,VWS V14.01,2013-02-14 14:26:00,
2013-02-14 08:31:00,76.5,51.0,27.11,SSE,148,5.4,7.2,32,0.00,,---,0.00,VWS V14.01,2013-02-14 14:31:00,
2013-02-14 08:36:00,76.5,51.0,27.11,East,79,4.0,5.8,32,0.00,,---,0.00,VWS V14.01,2013-02-14 14:36:00,
2013-02-14 08:41:00,76.5,51.0,27.11,East,87,6.3,8.7,32,0.00,,---,0.00,VWS V14.01,2013-02-14 14:41:00,
2013-02-14 08:46:00,76.5,51.0,27.11,South,191,4.0,4.0,32,0.00,,---,0.00,VWS V14.01,2013-02-14 14:46:00,
2013-02-14 08:51:00,76.5,51.0,27.11,SE,129,3.1,4.0,32,0.00,,---,0.00,VWS V14.01,2013-02-14 14:51:00,
2013-02-14 08:56:00,76.5,51.0,27.11,ENE,74,8.1,8.1,32,0.00,,---,0.00,VWS V14.01,2013-02-14 14:56:00,
2013-02-14 09:01:00,76.5,51.0,27.11,ESE,112,3.1,4.0,32,0.00,,---,0.00,VWS V14.01,2013-02-14 15:01:00,
2013-02-14 09:06:00,76.5,51.0,27.11,ENE,72,5.8,6.3,32,0.00,,---,0.00,VWS V14.01,2013-02-14 15:06:00,
2013-02-14 09:11:00,76.5,51.0,27.11,ESE,112,2.7,4.0,32,0.00,,---,0.00,VWS V14.01,2013-02-14 15:11:00,
2013-02-14 09:16:00,76.5,51.0,27.11,ESE,103,6.3,6.3,32,0.00,,---,0.00,VWS V14.01,2013-02-14 15:16:00,
2013-02-14 09:21:00,76.5,51.0,27.11,East,89,4.0,13.2,32,0.00,,---,0.00,VWS V14.01,2013-02-14 15:21:00,
2013-02-14 09:26:00,76.5,51.0,27.11,SSE,147,2.7,6.3,32,0.00,,---,0.00,VWS V14.01,2013-02-14 15:26:00,
2013-02-14 09:31:00,76.5,51.0,27.11,NW,312,4.9,7.6,32,0.00,,---,0.00,VWS V14.01,2013-02-14 15:31:00,
2013-02-14 09:36:00,76.5,51.0,27.11,East,96,7.6,9.2,32,0.00,,---,0.00,VWS V14.01,2013-02-14 15:36:00,
2013-02-14 09:41:00,76.5,51.0,27.11,SE,131,5.4,8.1,32,0.00,,---,0.00,VWS V14.01,2013-02-14 15:41:00,
2013-02-14 09:46:00,76.5,51.0,27.11,SSE,147,2.7,8.7,32,0.00,,---,0.00,VWS V14.01,2013-02-14 15:46:00,
2013-02-14 09:51:00,76.5,51.0,27.11,East,101,10.5,10.5,32,0.00,,---,0.00,VWS V14.01,2013-02-14 15:51:00,
2013-02-14 09:56:00,76.5,51.0,27.14,East,101,5.8,11.0,32,0.00,,---,0.00,VWS V14.01,2013-02-14 15:56:00,
2013-02-14 10:01:00,76.5,51.0,27.14,East,98,5.8,13.2,32,0.00,,---,0.04,VWS V14.01,2013-02-14 16:01:00,
2013-02-14 10:06:00,76.5,51.0,27.14,ESE,102,4.0,7.6,32,0.00,,---,0.00,VWS V14.01,2013-02-14 16:06:00,
2013-02-14 10:11:00,76.5,51.0,27.14,NE,56,9.2,9.2,32,0.00,,---,0.00,VWS V14.01,2013-02-14 16:11:00,
2013-02-14 10:16:00,76.5,51.0,27.14,SE,127,4.9,10.5,32,0.00,,---,0.00,VWS V14.01,2013-02-14 16:16:00,
2013-02-14 10:21:00,76.5,51.0,27.14,SE,136,3.1,8.7,32,0.00,,---,0.00,VWS V14.01,2013-02-14 16:21:00,
2013-02-14 10:26:00,76.5,51.0,27.14,ESE,122,8.3,8.3,32,0.00,,---,0.00,VWS V14.01,2013-02-14 16:26:00,
2013-02-14 10:31:00,76.5,51.0,27.14,ESE,105,7.6,8.3,32,0.00,,---,0.00,VWS V14.01,2013-02-14 16:31:00,
2013-02-14 10:36:00,76.5,51.0,27.14,ESE,113,5.8,5.8,32,0.00,,---,0.00,VWS V14.01,2013-02-14 16:36:00,
2013-02-14 10:41:00,76.5,51.0,27.14,East,94,4.0,4.0,32,0.00,,---,0.00,VWS V14.01,2013-02-14 16:41:00,
2013-02-14 10:45:00,76.5,51.0,27.14,ESE,111,3.1,4.9,32,0.00,,---,0.00,VWS V14.01,2013-02-14 16:45:00,
2013-02-14 10:50:00,76.5,51.0,27.14,East,101,4.0,5.4,32,0.00,,---,0.00,VWS V14.01,2013-02-14 16:50:00,
2013-02-14 10:55:00,76.5,51.0,27.11,South,174,4.0,4.0,32,0.00,,---,0.00,VWS V14.01,2013-02-14 16:55:00,
2013-02-14 11:00:00,76.5,51.0,27.11,East,99,4.0,4.9,32,0.00,,---,0.00,VWS V14.01,2013-02-14 17:00:00,
2013-02-14 11:05:00,76.5,51.0,27.11,South,174,2.7,4.0,32,0.00,,---,0.00,VWS V14.01,2013-02-14 17:05:00,
2013-02-14 11:10:00,76.5,51.0,27.11,East,80,0.0,2.2,32,0.00,,---,0.00,VWS V14.01,2013-02-14 17:10:00,
2013-02-14 11:15:00,76.5,51.0,27.11,SE,145,3.1,4.0,32,0.00,,---,0.00,VWS V14.01,2013-02-14 17:15:00,
2013-02-14 11:20:00,76.5,51.0,27.11,East,88,4.9,5.8,32,0.00,,---,0.00,VWS V14.01,2013-02-14 17:20:00,
2013-02-14 11:25:00,76.5,51.0,27.11,SSE,152,4.9,5.4,32,0.00,,---,0.00,VWS V14.01,2013-02-14 17:25:00,
2013-02-14 11:30:00,76.5,51.0,27.11,ESE,117,2.7,4.0,32,0.00,,---,0.00,VWS V14.01,2013-02-14 17:30:00,
2013-02-14 11:35:00,76.5,51.0,27.11,East,88,7.6,7.6,32,0.00,,---,0.00,VWS V14.01,2013-02-14 17:35:00,
2013-02-14 11:40:00,76.5,51.0,27.11,ESE,104,3.6,5.8,32,0.00,,---,0.00,VWS V14.01,2013-02-14 17:40:00,
2013-02-14 11:45:00,76.5,51.0,27.11,SW,226,2.7,3.6,32,0.00,,---,0.00,VWS V14.01,2013-02-14 17:45:00,
2013-02-14 11:50:00,76.5,51.0,27.11,NE,42,2.7,2.7,32,0.00,,---,0.00,VWS V14.01,2013-02-14 17:50:00,
2013-02-14 11:55:00,76.5,51.0,27.08,WSW,239,3.6,8.7,32,0.00,,---,0.00,VWS V14.01,2013-02-14 17:55:00,
2013-02-14 12:00:00,76.5,51.0,27.08,East,90,2.7,2.7,32,0.00,,---,0.00,VWS V14.01,2013-02-14 18:00:00,
2013-02-14 12:05:00,76.5,51.0,27.08,NE,50,3.6,5.4,32,0.00,,---,0.00,VWS V14.01,2013-02-14 18:05:00,
2013-02-14 12:10:00,76.5,51.0,27.08,South,188,0.0,0.0,32,0.00,,---,0.00,VWS V14.01,2013-02-14 18:10:00,
2013-02-14 12:15:00,76.5,51.0,27.08,NE,44,3.1,5.4,32,0.00,,---,0.00,VWS V14.01,2013-02-14 18:15:00,
2013-02-14 12:20:00,76.5,51.0,27.08,ESE,110,2.2,3.6,32,0.00,,---,0.00,VWS V14.01,2013-02-14 18:20:00,
2013-02-14 12:25:00,76.5,51.0,27.08,NE,46,3.6,3.6,32,0.00,,---,0.00,VWS V14.01,2013-02-14 18:25:00,
2013-02-14 12:30:00,76.5,51.0,27.08,ENE,59,5.4,5.4,32,0.00,,---,0.00,VWS V14.01,2013-02-14 18:30:00,
2013-02-14 12:35:00,76.5,51.0,27.08,SSE,157,0.0,0.0,32,0.00,,---,0.00,VWS V14.01,2013-02-14 18:35:00,
2013-02-14 12:40:00,76.5,51.0,27.08,ENE,71,2.7,2.7,32,0.00,,---,0.00,VWS V14.01,2013-02-14 18:40:00,
2013-02-14 12:45:00,76.5,51.0,27.08,ESE,118,2.7,5.8,32,0.00,,---,0.00,VWS V14.01,2013-02-14 18:45:00,
2013-02-14 12:50:00,76.5,51.0,27.08,East,96,2.7,8.1,32,0.00,,---,0.00,VWS V14.01,2013-02-14 18:50:00,
2013-02-14 12:55:00,76.5,51.0,27.08,SE,134,2.7,4.0,32,0.00,,---,0.00,VWS V14.01,2013-02-14 18:55:00,
2013-02-14 13:00:00,76.5,51.0,27.08,SSE,149,2.7,2.7,32,0.00,,---,0.00,VWS V14.01,2013-02-14 19:00:00,
2013-02-14 13:05:00,76.5,51.0,27.08,East,90,3.1,3.1,32,0.00,,---,0.00,VWS V14.01,2013-02-14 19:05:00,
2013-02-14 13:10:00,76.5,51.0,27.08,SE,143,4.0,4.0,32,0.00,,---,0.00,VWS V14.01,2013-02-14 19:10:00,
2013-02-14 13:15:00,76.5,51.0,27.08,SSW,193,4.9,4.9,32,0.00,,---,0.00,VWS V14.01,2013-02-14 19:15:00,
2013-02-14 13:20:00,76.5,51.0,27.08,WSW,237,3.1,4.0,32,0.00,,---,0.00,VWS V14.01,2013-02-14 19:20:00,
2013-02-14 13:25:00,76.5,51.0,27.08,South,173,0.0,2.7,32,0.00,,---,0.00,VWS V14.01,2013-02-14 19:25:00,
2013-02-14 13:30:00,76.5,51.0,27.08,WNW,286,0.0,3.6,32,0.00,,---,0.00,VWS V14.01,2013-02-14 19:30:00,
2013-02-14 13:35:00,76.5,51.0,27.08,East,98,3.1,3.1,32,0.00,,---,0.00,VWS V14.01,2013-02-14 19:35:00,
2013-02-14 13:40:00,76.5,51.0,27.05,SE,134,0.0,2.2,32,0.00,,---,0.00,VWS V14.01,2013-02-14 19:40:00,
2013-02-14 13:45:00,76.5,51.0,27.05,South,185,3.6,3.6,32,0.00,,---,0.00,VWS V14.01,2013-02-14 19:45:00,
2013-02-14 13:50:00,76.5,51.0,27.05,SW,219,3.1,3.1,32,0.00,,---,0.00,VWS V14.01,2013-02-14 19:50:00,
2013-02-14 13:55:00,76.5,51.0,27.05,West,270,0.0,0.0,32,0.00,,---,0.00,VWS V14.01,2013-02-14 19:55:00,
2013-02-14 14:00:00,76.5,51.0,27.05,NE,46,0.0,0.0,32,0.00,,---,0.00,VWS V14.01,2013-02-14 20:00:00,
2013-02-14 14:05:00,76.5,51.0,27.05,NNE,30,3.1,5.4,32,0.00,,---,0.00,VWS V14.01,2013-02-14 20:05:00,
2013-02-14 14:10:00,76.5,51.0,27.05,North,357,5.4,5.8,32,0.00,,---,0.00,VWS V14.01,2013-02-14 20:10:00,
2013-02-14 14:15:00,76.5,51.0,27.05,NW,311,0.0,2.2,32,0.00,,---,0.00,VWS V14.01,2013-02-14 20:15:00,
2013-02-14 14:20:00,76.5,51.0,27.05,NNE,13,3.6,3.6,32,0.00,,---,0.00,VWS V14.01,2013-02-14 20:20:00,
2013-02-14 14:25:00,76.5,51.0,27.05,North,3,2.2,5.4,32,0.00,,---,0.00,VWS V14.01,2013-02-14 20:25:00,
2013-02-14 14:30:00,76.5,51.0,27.05,NNE,23,2.7,2.7,32,0.00,,---,0.00,VWS V14.01,2013-02-14 20:30:00,
2013-02-14 14:35:00,76.5,51.0,27.05,SW,215,0.0,2.7,32,0.00,,---,0.00,VWS V14.01,2013-02-14 20:35:00,
2013-02-14 14:40:00,76.5,51.0,27.02,West,279,2.2,2.2,32,0.00,,---,0.00,VWS V14.01,2013-02-14 20:40:00,
2013-02-14 14:45:00,76.5,51.0,27.02,SW,236,4.9,4.9,32,0.00,,---,0.00,VWS V14.01,2013-02-14 20:45:00,
2013-02-14 14:50:00,76.5,51.0,27.02,SSW,212,11.0,11.0,32,0.00,,---,0.00,VWS V14.01,2013-02-14 20:50:00,
2013-02-14 14:55:00,76.5,51.0,27.05,SSW,210,12.8,12.8,32,0.08,,---,0.08,VWS V14.01,2013-02-14 20:55:00,
2013-02-14 15:00:00,76.5,51.0,27.05,West,260,6.3,8.3,32,0.28,,---,0.28,VWS V14.01,2013-02-14 21:00:00,
2013-02-14 15:05:00,76.5,51.0,27.05,SSW,208,5.8,8.1,32,0.39,,---,0.39,VWS V14.01,2013-02-14 21:05:00,
2013-02-14 15:10:00,76.5,51.0,27.02,SSW,204,8.3,8.3,32,0.43,,---,0.43,VWS V14.01,2013-02-14 21:10:00,
2013-02-14 15:15:00,76.5,51.0,27.02,SSW,200,5.4,5.4,32,0.47,,---,0.47,VWS V14.01,2013-02-14 21:15:00,
2013-02-14 15:20:00,76.5,51.0,27.02,West,266,10.1,10.1,32,0.47,,---,0.47,VWS V14.01,2013-02-14 21:20:00,
2013-02-14 15:25:00,76.5,51.0,27.05,West,266,10.1,10.1,32,0.47,,---,0.47,VWS V14.01,2013-02-14 21:25:00,
2013-02-14 15:30:00,76.5,51.0,27.05,West,266,10.1,10.1,32,0.47,,---,0.47,VWS V14.01,2013-02-14 21:30:00,
2013-02-14 15:35:00,76.5,51.0,27.05,West,266,10.1,10.1,32,0.47,,---,0.47,VWS V14.01,2013-02-14 21:35:00,
2013-02-14 15:40:00,76.5,51.0,27.05,West,266,10.1,10.1,32,0.47,,---,0.47,VWS V14.01,2013-02-14 21:40:00,
2013-02-14 15:45:00,76.5,51.0,27.05,West,266,10.1,10.1,32,0.47,,---,0.47,VWS V14.01,2013-02-14 21:45:00,
2013-02-14 15:50:00,76.5,51.0,27.05,West,266,10.1,10.1,32,0.47,,---,0.47,VWS V14.01,2013-02-14 21:50:00,
2013-02-14 15:55:00,76.5,51.0,27.05,West,266,10.1,10.1,32,0.63,,---,0.71,VWS V14.01,2013-02-14 21:55:00,
2013-02-14 16:00:00,76.5,51.0,27.05,West,266,10.1,10.1,32,0.47,,---,0.71,VWS V14.01,2013-02-14 22:00:00,
2013-02-14 16:05:00,76.5,51.0,27.05,West,266,10.1,10.1,32,0.31,,---,0.71,VWS V14.01,2013-02-14 22:05:00,
2013-02-14 16:10:00,76.5,51.0,27.05,West,266,10.1,10.1,32,0.31,,---,0.71,VWS V14.01,2013-02-14 22:10:00,
2013-02-14 16:15:00,76.5,51.0,27.05,West,266,10.1,10.1,32,0.24,,---,0.71,VWS V14.01,2013-02-14 22:15:00,
2013-02-14 16:20:00,76.5,51.0,27.05,West,266,10.1,10.1,32,0.28,,---,0.75,VWS V14.01,2013-02-14 22:20:00,
2013-02-14 16:25:00,76.5,51.0,27.05,West,266,10.1,10.1,32,0.28,,---,0.75,VWS V14.01,2013-02-14 22:25:00,
2013-02-14 16:30:00,76.5,51.0,27.05,West,266,10.1,10.1,32,0.28,,---,0.75,VWS V14.01,2013-02-14 22:30:00,
2013-02-14 16:35:00,76.5,51.0,27.05,West,266,10.1,10.1,32,0.28,,---,0.75,VWS V14.01,2013-02-14 22:35:00,
2013-02-14 16:40:00,76.5,51.0,27.05,West,266,10.1,10.1,32,0.28,,---,0.75,VWS V14.01,2013-02-14 22:40:00,
2013-02-14 16:45:00,76.5,51.0,27.05,West,266,10.1,10.1,32,0.28,,---,0.75,VWS V14.01,2013-02-14 22:45:00,
2013-02-14 16:50:00,76.5,51.0,27.05,West,266,10.1,10.1,32,0.28,,---,0.75,VWS V14.01,2013-02-14 22:50:00,
2013-02-14 16:55:00,76.5,51.0,27.05,West,266,10.1,10.1,32,0.04,,---,0.75,VWS V14.01,2013-02-14 22:55:00,
2013-02-14 17:00:00,76.5,51.0,27.05,West,266,10.1,10.1,32,0.04,,---,0.75,VWS V14.01,2013-02-14 23:00:00,
2013-02-14 17:05:00,76.5,51.0,27.05,West,266,10.1,10.1,32,0.04,,---,0.75,VWS V14.01,2013-02-14 23:05:00,
2013-02-14 17:10:00,76.5,51.0,27.05,West,266,10.1,10.1,32,0.04,,---,0.75,VWS V14.01,2013-02-14 23:10:00,
2013-02-14 17:15:00,76.5,51.0,27.05,West,266,10.1,10.1,32,0.04,,---,0.75,VWS V14.01,2013-02-14 23:15:00,
2013-02-14 17:20:00,76.5,51.0,27.05,West,266,10.1,10.1,32,0.00,,---,0.75,VWS V14.01,2013-02-14 23:20:00,
2013-02-14 17:25:00,76.5,51.0,27.05,West,266,10.1,10.1,32,0.00,,---,0.75,VWS V14.01,2013-02-14 23:25:00,
2013-02-14 17:30:00,76.5,51.0,27.05,West,266,10.1,10.1,32,0.00,,---,0.75,VWS V14.01,2013-02-14 23:30:00,
2013-02-14 17:35:00,76.5,51.0,27.05,West,266,10.1,10.1,32,0.00,,---,0.75,VWS V14.01,2013-02-14 23:35:00,
2013-02-14 17:40:00,76.5,51.0,27.05,West,266,10.1,10.1,32,0.00,,---,0.75,VWS V14.01,2013-02-14 23:40:00,
2013-02-14 17:45:00,76.5,51.0,27.05,West,266,10.1,10.1,32,0.00,,---,0.75,VWS V14.01,2013-02-14 23:45:00,
2013-02-14 17:50:00,76.5,51.0,27.05,West,266,10.1,10.1,32,0.00,,---,0.75,VWS V14.01,2013-02-14 23:50:00,
2013-02-14 17:55:00,76.5,51.0,27.05,West,266,10.1,10.1,32,0.00,,---,0.75,VWS V14.01,2013-02-14 23:55:00,
2013-02-14 18:00:00,76.5,51.0,27.05,West,266,10.1,10.1,32,0.00,,---,0.75,VWS V14.01,2013-02-15 00:00:00,
2013-02-14 18:05:00,76.5,51.0,27.05,West,266,10.1,10.1,32,0.00,,---,0.75,VWS V14.01,2013-02-15 00:05:00,
2013-02-14 18:10:00,76.5,51.0,27.05,West,266,10.1,10.1,32,0.00,,---,0.75,VWS V14.01,2013-02-15 00:10:00,
2013-02-14 18:15:00,76.5,51.0,27.05,West,266,10.1,10.1,32,0.00,,---,0.75,VWS V14.01,2013-02-15 00:15:00,
2013-02-14 18:20:00,76.5,51.0,27.05,West,266,10.1,10.1,32,0.00,,---,0.75,VWS V14.01,2013-02-15 00:20:00,
2013-02-14 18:25:00,76.5,51.0,27.05,West,266,10.1,10.1,32,0.00,,---,0.75,VWS V14.01,2013-02-15 00:25:00,
2013-02-14 18:30:00,76.5,51.0,27.05,West,266,10.1,10.1,32,0.00,,---,0.75,VWS V14.01,2013-02-15 00:30:00,
2013-02-14 18:35:00,76.5,51.0,27.05,West,266,10.1,10.1,32,0.00,,---,0.75,VWS V14.01,2013-02-15 00:35:00,
2013-02-14 18:40:00,76.5,51.0,27.05,West,266,10.1,10.1,32,0.00,,---,0.75,VWS V14.01,2013-02-15 00:40:00,
2013-02-14 18:45:00,76.5,51.0,27.05,West,266,10.1,10.1,32,0.00,,---,0.75,VWS V14.01,2013-02-15 00:45:00,
2013-02-14 18:50:00,76.5,51.0,27.05,West,266,10.1,10.1,32,0.00,,---,0.75,VWS V14.01,2013-02-15 00:50:00,
2013-02-14 18:55:00,76.5,51.0,27.08,West,266,10.1,10.1,32,0.00,,---,0.75,VWS V14.01,2013-02-15 00:55:00,
2013-02-14 19:00:00,76.5,51.0,27.08,West,266,10.1,10.1,32,0.00,,---,0.75,VWS V14.01,2013-02-15 01:00:00,
2013-02-14 19:05:00,76.5,51.0,27.08,West,266,10.1,10.1,32,0.00,,---,0.75,VWS V14.01,2013-02-15 01:05:00,
2013-02-14 19:10:00,76.5,51.0,27.08,West,266,10.1,10.1,32,0.00,,---,0.75,VWS V14.01,2013-02-15 01:10:00,
2013-02-14 19:15:00,76.5,51.0,27.08,West,266,10.1,10.1,32,0.00,,---,0.75,VWS V14.01,2013-02-15 01:15:00,
2013-02-14 19:20:00,76.5,51.0,27.08,West,266,10.1,10.1,32,0.00,,---,0.75,VWS V14.01,2013-02-15 01:20:00,
2013-02-14 19:25:00,76.5,51.0,27.08,West,266,10.1,10.1,32,0.00,,---,0.75,VWS V14.01,2013-02-15 01:25:00,
2013-02-14 19:30:00,76.5,51.0,27.08,West,266,10.1,10.1,32,0.00,,---,0.75,VWS V14.01,2013-02-15 01:30:00,
2013-02-14 19:35:00,76.5,51.0,27.08,West,266,10.1,10.1,32,0.00,,---,0.75,VWS V14.01,2013-02-15 01:35:00,
2013-02-14 19:40:00,76.5,51.0,27.08,West,266,10.1,10.1,32,0.00,,---,0.75,VWS V14.01,2013-02-15 01:40:00,
2013-02-14 19:45:00,76.5,51.0,27.08,West,266,10.1,10.1,32,0.00,,---,0.75,VWS V14.01,2013-02-15 01:45:00,
2013-02-14 19:50:00,76.5,51.0,27.08,West,266,10.1,10.1,32,0.00,,---,0.75,VWS V14.01,2013-02-15 01:50:00,
2013-02-14 19:55:00,76.5,51.0,27.08,West,266,10.1,10.1,32,0.00,,---,0.75,VWS V14.01,2013-02-15 01:55:00,
2013-02-14 20:00:00,76.5,51.0,27.08,West,266,10.1,10.1,32,0.00,,---,0.75,VWS V14.01,2013-02-15 02:00:00,
2013-02-14 20:05:00,76.5,51.0,27.08,West,266,10.1,10.1,32,0.00,,---,0.75,VWS V14.01,2013-02-15 02:05:00,
2013-02-14 20:10:00,76.5,51.0,27.08,West,266,10.1,10.1,32,0.00,,---,0.75,VWS V14.01,2013-02-15 02:10:00,
2013-02-14 20:15:00,76.5,51.0,27.08,West,266,10.1,10.1,32,0.00,,---,0.75,VWS V14.01,2013-02-15 02:15:00,
2013-02-14 20:20:00,76.5,51.0,27.08,West,266,10.1,10.1,32,0.00,,---,0.75,VWS V14.01,2013-02-15 02:20:00,
2013-02-14 20:25:00,76.5,51.0,27.08,West,266,10.1,10.1,32,0.00,,---,0.75,VWS V14.01,2013-02-15 02:25:00,
2013-02-14 20:30:00,76.5,51.0,27.08,West,266,10.1,10.1,32,0.00,,---,0.75,VWS V14.01,2013-02-15 02:30:00,
2013-02-14 20:35:00,76.5,51.0,27.08,West,266,10.1,10.1,32,0.00,,---,0.75,VWS V14.01,2013-02-15 02:35:00,
2013-02-14 20:40:00,76.5,51.0,27.08,West,266,10.1,10.1,32,0.00,,---,0.75,VWS V14.01,2013-02-15 02:40:00,
2013-02-14 20:45:00,76.5,51.0,27.08,West,266,10.1,10.1,32,0.00,,---,0.75,VWS V14.01,2013-02-15 02:45:00,
2013-02-14 20:50:00,76.5,51.0,27.08,West,266,10.1,10.1,32,0.00,,---,0.75,VWS V14.01,2013-02-15 02:50:00,
2013-02-14 20:55:00,76.5,51.0,27.11,West,266,10.1,10.1,32,0.00,,---,0.75,VWS V14.01,2013-02-15 02:55:00,
2013-02-14 21:00:00,76.5,51.0,27.11,West,266,10.1,10.1,32,0.00,,---,0.75,VWS V14.01,2013-02-15 03:00:00,
2013-02-14 21:05:00,76.5,51.0,27.11,West,266,10.1,10.1,32,0.00,,---,0.75,VWS V14.01,2013-02-15 03:05:00,
2013-02-14 21:10:00,76.5,51.0,27.11,West,266,10.1,10.1,32,0.00,,---,0.75,VWS V14.01,2013-02-15 03:10:00,
2013-02-14 21:15:00,76.5,51.0,27.11,West,266,10.1,10.1,32,0.00,,---,0.75,VWS V14.01,2013-02-15 03:15:00,
2013-02-14 21:20:00,76.5,51.0,27.11,West,266,10.1,10.1,32,0.00,,---,0.75,VWS V14.01,2013-02-15 03:20:00,
2013-02-14 21:25:00,76.5,51.0,27.08,West,266,10.1,10.1,32,0.00,,---,0.75,VWS V14.01,2013-02-15 03:25:00,
2013-02-14 21:30:00,76.5,51.0,27.08,West,266,10.1,10.1,32,0.00,,---,0.75,VWS V14.01,2013-02-15 03:30:00,
2013-02-14 21:35:00,76.5,51.0,27.08,West,266,10.1,10.1,32,0.00,,---,0.75,VWS V14.01,2013-02-15 03:35:00,
2013-02-14 21:40:00,76.5,51.0,27.11,West,266,10.1,10.1,32,0.00,,---,0.75,VWS V14.01,2013-02-15 03:40:00,
2013-02-14 21:45:00,76.5,51.0,27.11,West,266,10.1,10.1,32,0.00,,---,0.75,VWS V14.01,2013-02-15 03:45:00,
2013-02-14 21:50:00,76.5,51.0,27.11,West,266,10.1,10.1,32,0.00,,---,0.75,VWS V14.01,2013-02-15 03:50:00,
2013-02-14 21:55:00,76.5,51.0,27.11,West,266,10.1,10.1,32,0.00,,---,0.75,VWS V14.01,2013-02-15 03:55:00,
2013-02-14 22:00:00,76.5,51.0,27.11,West,266,10.1,10.1,32,0.00,,---,0.75,VWS V14.01,2013-02-15 04:00:00,
2013-02-14 22:05:00,76.5,51.0,27.11,West,266,10.1,10.1,32,0.00,,---,0.75,VWS V14.01,2013-02-15 04:05:00,
2013-02-14 22:10:00,76.5,51.0,27.08,West,266,10.1,10.1,32,0.00,,---,0.75,VWS V14.01,2013-02-15 04:10:00,
2013-02-14 22:15:00,76.5,51.0,27.08,West,266,10.1,10.1,32,0.00,,---,0.75,VWS V14.01,2013-02-15 04:15:00,
2013-02-14 22:20:00,76.5,51.0,27.08,West,266,10.1,10.1,32,0.00,,---,0.75,VWS V14.01,2013-02-15 04:20:00,
2013-02-14 22:25:00,76.5,51.0,27.08,West,266,10.1,10.1,32,0.00,,---,0.75,VWS V14.01,2013-02-15 04:25:00,
2013-02-14 22:30:00,76.5,51.0,27.08,West,266,10.1,10.1,32,0.00,,---,0.75,VWS V14.01,2013-02-15 04:30:00,
2013-02-14 22:35:00,76.5,51.0,27.08,West,266,10.1,10.1,32,0.00,,---,0.75,VWS V14.01,2013-02-15 04:35:00,
2013-02-14 22:40:00,76.5,51.0,27.08,SE,141,7.6,7.6,32,0.00,,---,0.75,VWS V14.01,2013-02-15 04:40:00,
2013-02-14 22:45:00,76.5,51.0,27.08,SSE,160,9.6,9.6,32,0.00,,---,0.75,VWS V14.01,2013-02-15 04:45:00,
2013-02-14 22:50:00,76.5,51.0,27.08,SSE,160,9.6,9.6,32,0.00,,---,0.75,VWS V14.01,2013-02-15 04:50:00,
2013-02-14 22:55:00,76.5,51.0,27.08,SE,142,10.5,10.5,32,0.00,,---,0.75,VWS V14.01,2013-02-15 04:55:00,
2013-02-14 23:00:00,76.5,51.0,27.08,SE,142,10.5,10.5,32,0.00,,---,0.75,VWS V14.01,2013-02-15 05:00:00,
2013-02-14 23:05:00,76.5,51.0,27.08,SE,142,10.5,10.5,32,0.00,,---,0.75,VWS V14.01,2013-02-15 05:05:00,
2013-02-14 23:10:00,76.5,51.0,27.08,SE,142,10.5,10.5,32,0.00,,---,0.75,VWS V14.01,2013-02-15 05:10:00,
2013-02-14 23:15:00,76.5,51.0,27.08,SE,142,10.5,10.5,32,0.00,,---,0.75,VWS V14.01,2013-02-15 05:15:00,
2013-02-14 23:20:00,76.5,51.0,27.08,SE,142,10.5,10.5,32,0.00,,---,0.75,VWS V14.01,2013-02-15 05:20:00,
2013-02-14 23:25:00,76.5,51.0,27.08,SE,142,10.5,10.5,32,0.00,,---,0.75,VWS V14.01,2013-02-15 05:25:00,
2013-02-14 23:30:00,76.5,51.0,27.08,SE,142,10.5,10.5,32,0.00,,---,0.75,VWS V14.01,2013-02-15 05:30:00,
2013-02-14 23:35:00,76.5,51.0,27.08,SE,142,10.5,10.5,32,0.00,,---,0.75,VWS V14.01,2013-02-15 05:35:00,
2013-02-14 23:40:00,76.5,51.0,27.08,SE,142,10.5,10.5,32,0.00,,---,0.75,VWS V14.01,2013-02-15 05:40:00,
2013-02-14 23:45:00,76.5,51.0,27.08,SE,142,10.5,10.5,32,0.00,,---,0.75,VWS V14.01,2013-02-15 05:45:00,
2013-02-14 23:50:00,76.5,51.0,27.08,SE,142,10.5,10.5,32,0.00,,---,0.75,VWS V14.01,2013-02-15 05:50:00,
2013-02-14 23:55:00,76.5,51.0,27.08,SE,142,10.5,10.5,32,0.00,,---,0.75,VWS V14.01,2013-02-15 05:55:00,